sensor_id;sensor_type;location;lat;lon;timestamp;P1;durP1;ratioP1;P2;durP2;ratioP2
12122;SDS011;6125;59.628;17.852;2023-02-11T00:00:58;0.97;;;0.90;;
12122;SDS011;6125;59.628;17.852;2023-02-11T00:03:25;1.00;;;0.90;;
12122;SDS011;6125;59.628;17.852;2023-02-11T00:05:56;1.00;;;0.80;;
12122;SDS011;6125;59.628;17.852;2023-02-11T00:08:24;1.37;;;0.90;;
12122;SDS011;6125;59.628;17.852;2023-02-11T00:10:53;1.00;;;0.90;;
12122;SDS011;6125;59.628;17.852;2023-02-11T00:13:22;0.70;;;0.70;;
12122;SDS011;6125;59.628;17.852;2023-02-11T00:15:50;1.03;;;0.93;;
12122;SDS011;6125;59.628;17.852;2023-02-11T00:18:24;0.60;;;0.60;;
12122;SDS011;6125;59.628;17.852;2023-02-11T00:20:53;0.90;;;0.90;;
12122;SDS011;6125;59.628;17.852;2023-02-11T00:23:20;0.67;;;0.67;;
12122;SDS011;6125;59.628;17.852;2023-02-11T00:25:47;1.07;;;1.00;;
12122;SDS011;6125;59.628;17.852;2023-02-11T00:28:16;0.90;;;0.90;;
12122;SDS011;6125;59.628;17.852;2023-02-11T00:30:43;1.13;;;1.00;;
12122;SDS011;6125;59.628;17.852;2023-02-11T00:33:10;0.97;;;0.97;;
12122;SDS011;6125;59.628;17.852;2023-02-11T00:35:39;0.90;;;0.90;;
12122;SDS011;6125;59.628;17.852;2023-02-11T00:38:06;0.80;;;0.80;;
12122;SDS011;6125;59.628;17.852;2023-02-11T00:40:47;1.00;;;1.00;;
12122;SDS011;6125;59.628;17.852;2023-02-11T00:43:14;1.30;;;1.20;;
12122;SDS011;6125;59.628;17.852;2023-02-11T00:45:44;1.23;;;1.17;;
12122;SDS011;6125;59.628;17.852;2023-02-11T00:48:12;2.07;;;1.30;;
12122;SDS011;6125;59.628;17.852;2023-02-11T00:50:41;1.40;;;1.30;;
12122;SDS011;6125;59.628;17.852;2023-02-11T00:53:10;3.53;;;1.30;;
12122;SDS011;6125;59.628;17.852;2023-02-11T00:55:37;1.20;;;1.10;;
12122;SDS011;6125;59.628;17.852;2023-02-11T00:58:05;1.40;;;1.30;;
12122;SDS011;6125;59.628;17.852;2023-02-11T01:00:32;1.30;;;1.20;;
12122;SDS011;6125;59.628;17.852;2023-02-11T01:02:59;2.10;;;1.63;;
12122;SDS011;6125;59.628;17.852;2023-02-11T01:05:26;2.73;;;1.50;;
12122;SDS011;6125;59.628;17.852;2023-02-11T01:07:55;4.27;;;1.80;;
12122;SDS011;6125;59.628;17.852;2023-02-11T01:10:22;3.23;;;1.70;;
12122;SDS011;6125;59.628;17.852;2023-02-11T01:12:50;2.03;;;1.57;;
12122;SDS011;6125;59.628;17.852;2023-02-11T01:15:18;1.30;;;1.20;;
12122;SDS011;6125;59.628;17.852;2023-02-11T01:17:45;3.40;;;1.70;;
12122;SDS011;6125;59.628;17.852;2023-02-11T01:20:15;1.57;;;1.47;;
12122;SDS011;6125;59.628;17.852;2023-02-11T01:22:45;2.67;;;1.77;;
12122;SDS011;6125;59.628;17.852;2023-02-11T01:25:15;3.43;;;1.67;;
12122;SDS011;6125;59.628;17.852;2023-02-11T01:27:42;2.10;;;1.90;;
12122;SDS011;6125;59.628;17.852;2023-02-11T01:30:11;2.33;;;1.70;;
12122;SDS011;6125;59.628;17.852;2023-02-11T01:32:40;1.97;;;1.67;;
12122;SDS011;6125;59.628;17.852;2023-02-11T01:35:08;3.23;;;1.40;;
12122;SDS011;6125;59.628;17.852;2023-02-11T01:37:39;2.33;;;1.60;;
12122;SDS011;6125;59.628;17.852;2023-02-11T01:40:17;5.97;;;2.00;;
12122;SDS011;6125;59.628;17.852;2023-02-11T01:42:46;2.90;;;1.63;;
12122;SDS011;6125;59.628;17.852;2023-02-11T01:48:19;1.97;;;1.63;;
12122;SDS011;6125;59.628;17.852;2023-02-11T01:50:49;2.23;;;1.60;;
12122;SDS011;6125;59.628;17.852;2023-02-11T01:53:20;2.13;;;1.33;;
12122;SDS011;6125;59.628;17.852;2023-02-11T01:56:07;4.27;;;1.63;;
12122;SDS011;6125;59.628;17.852;2023-02-11T01:58:53;3.77;;;1.33;;
12122;SDS011;6125;59.628;17.852;2023-02-11T02:01:25;2.93;;;1.73;;
12122;SDS011;6125;59.628;17.852;2023-02-11T02:03:54;5.27;;;1.70;;
12122;SDS011;6125;59.628;17.852;2023-02-11T02:06:27;2.20;;;1.60;;
12122;SDS011;6125;59.628;17.852;2023-02-11T02:09:01;5.90;;;1.47;;
12122;SDS011;6125;59.628;17.852;2023-02-11T02:11:34;1.70;;;1.40;;
12122;SDS011;6125;59.628;17.852;2023-02-11T02:14:02;2.00;;;1.40;;
12122;SDS011;6125;59.628;17.852;2023-02-11T02:16:31;2.03;;;1.90;;
12122;SDS011;6125;59.628;17.852;2023-02-11T02:19:09;2.00;;;1.57;;
12122;SDS011;6125;59.628;17.852;2023-02-11T02:24:58;1.50;;;1.20;;
12122;SDS011;6125;59.628;17.852;2023-02-11T02:27:36;6.03;;;1.77;;
12122;SDS011;6125;59.628;17.852;2023-02-11T02:33:11;5.50;;;1.50;;
12122;SDS011;6125;59.628;17.852;2023-02-11T02:35:50;5.03;;;1.63;;
12122;SDS011;6125;59.628;17.852;2023-02-11T02:38:28;2.93;;;1.70;;
12122;SDS011;6125;59.628;17.852;2023-02-11T02:41:01;4.13;;;1.53;;
12122;SDS011;6125;59.628;17.852;2023-02-11T02:43:33;4.17;;;1.80;;
12122;SDS011;6125;59.628;17.852;2023-02-11T02:46:12;4.53;;;1.90;;
12122;SDS011;6125;59.628;17.852;2023-02-11T02:48:41;3.33;;;1.70;;
12122;SDS011;6125;59.628;17.852;2023-02-11T02:51:13;2.20;;;1.70;;
12122;SDS011;6125;59.628;17.852;2023-02-11T02:53:58;2.63;;;1.77;;
12122;SDS011;6125;59.628;17.852;2023-02-11T02:56:43;2.50;;;1.90;;
12122;SDS011;6125;59.628;17.852;2023-02-11T02:59:18;3.30;;;1.60;;
12122;SDS011;6125;59.628;17.852;2023-02-11T03:02:01;3.47;;;1.60;;
12122;SDS011;6125;59.628;17.852;2023-02-11T03:04:40;5.90;;;1.63;;
12122;SDS011;6125;59.628;17.852;2023-02-11T03:07:15;6.83;;;1.97;;
12122;SDS011;6125;59.628;17.852;2023-02-11T03:09:48;1.93;;;1.27;;
12122;SDS011;6125;59.628;17.852;2023-02-11T03:12:20;2.47;;;1.20;;
12122;SDS011;6125;59.628;17.852;2023-02-11T03:14:51;2.33;;;1.20;;
12122;SDS011;6125;59.628;17.852;2023-02-11T03:17:21;3.07;;;1.30;;
12122;SDS011;6125;59.628;17.852;2023-02-11T03:19:51;1.33;;;1.10;;
12122;SDS011;6125;59.628;17.852;2023-02-11T03:22:19;1.97;;;1.20;;
12122;SDS011;6125;59.628;17.852;2023-02-11T03:24:57;3.10;;;1.30;;
12122;SDS011;6125;59.628;17.852;2023-02-11T03:27:27;5.80;;;1.17;;
12122;SDS011;6125;59.628;17.852;2023-02-11T03:30:00;5.37;;;1.10;;
12122;SDS011;6125;59.628;17.852;2023-02-11T03:32:32;1.87;;;0.93;;
12122;SDS011;6125;59.628;17.852;2023-02-11T03:35:06;2.93;;;1.50;;
12122;SDS011;6125;59.628;17.852;2023-02-11T03:37:39;2.10;;;0.90;;
12122;SDS011;6125;59.628;17.852;2023-02-11T03:40:10;3.00;;;1.10;;
12122;SDS011;6125;59.628;17.852;2023-02-11T03:42:41;1.67;;;1.07;;
12122;SDS011;6125;59.628;17.852;2023-02-11T03:45:11;1.53;;;1.20;;
12122;SDS011;6125;59.628;17.852;2023-02-11T03:47:45;1.07;;;0.97;;
12122;SDS011;6125;59.628;17.852;2023-02-11T03:50:20;1.17;;;0.90;;
12122;SDS011;6125;59.628;17.852;2023-02-11T03:52:51;1.83;;;0.80;;
12122;SDS011;6125;59.628;17.852;2023-02-11T03:55:20;3.77;;;1.10;;
12122;SDS011;6125;59.628;17.852;2023-02-11T03:57:50;2.17;;;0.83;;
12122;SDS011;6125;59.628;17.852;2023-02-11T04:00:18;1.33;;;0.80;;
12122;SDS011;6125;59.628;17.852;2023-02-11T04:02:45;3.23;;;1.03;;
12122;SDS011;6125;59.628;17.852;2023-02-11T04:05:14;0.80;;;0.73;;
12122;SDS011;6125;59.628;17.852;2023-02-11T04:07:43;1.47;;;0.80;;
12122;SDS011;6125;59.628;17.852;2023-02-11T04:10:11;1.27;;;0.90;;
12122;SDS011;6125;59.628;17.852;2023-02-11T04:12:38;1.80;;;0.90;;
12122;SDS011;6125;59.628;17.852;2023-02-11T04:15:05;0.70;;;0.70;;
12122;SDS011;6125;59.628;17.852;2023-02-11T04:17:38;0.47;;;0.47;;
12122;SDS011;6125;59.628;17.852;2023-02-11T04:20:08;2.53;;;0.80;;
12122;SDS011;6125;59.628;17.852;2023-02-11T04:22:39;0.77;;;0.77;;
12122;SDS011;6125;59.628;17.852;2023-02-11T04:25:08;1.20;;;0.90;;
12122;SDS011;6125;59.628;17.852;2023-02-11T04:27:35;1.00;;;0.90;;
12122;SDS011;6125;59.628;17.852;2023-02-11T04:30:03;1.00;;;0.60;;
12122;SDS011;6125;59.628;17.852;2023-02-11T04:32:33;2.47;;;0.93;;
12122;SDS011;6125;59.628;17.852;2023-02-11T04:35:00;2.90;;;1.03;;
12122;SDS011;6125;59.628;17.852;2023-02-11T04:37:27;1.50;;;1.13;;
12122;SDS011;6125;59.628;17.852;2023-02-11T04:39:54;2.60;;;0.90;;
12122;SDS011;6125;59.628;17.852;2023-02-11T04:42:23;2.30;;;1.03;;
12122;SDS011;6125;59.628;17.852;2023-02-11T04:44:50;0.70;;;0.60;;
12122;SDS011;6125;59.628;17.852;2023-02-11T04:47:17;2.27;;;0.80;;
12122;SDS011;6125;59.628;17.852;2023-02-11T04:49:45;2.17;;;1.00;;
12122;SDS011;6125;59.628;17.852;2023-02-11T04:52:12;1.70;;;0.93;;
12122;SDS011;6125;59.628;17.852;2023-02-11T04:54:43;2.90;;;1.20;;
12122;SDS011;6125;59.628;17.852;2023-02-11T04:57:10;1.60;;;0.67;;
12122;SDS011;6125;59.628;17.852;2023-02-11T04:59:41;2.07;;;0.70;;
12122;SDS011;6125;59.628;17.852;2023-02-11T05:02:08;1.67;;;0.90;;
12122;SDS011;6125;59.628;17.852;2023-02-11T05:04:36;1.20;;;0.87;;
12122;SDS011;6125;59.628;17.852;2023-02-11T05:07:03;1.10;;;0.87;;
12122;SDS011;6125;59.628;17.852;2023-02-11T05:09:30;1.93;;;0.90;;
12122;SDS011;6125;59.628;17.852;2023-02-11T05:11:59;2.20;;;0.70;;
12122;SDS011;6125;59.628;17.852;2023-02-11T05:14:26;1.63;;;1.10;;
12122;SDS011;6125;59.628;17.852;2023-02-11T05:16:57;1.30;;;0.80;;
12122;SDS011;6125;59.628;17.852;2023-02-11T05:19:25;2.93;;;0.83;;
12122;SDS011;6125;59.628;17.852;2023-02-11T05:21:52;2.43;;;1.13;;
12122;SDS011;6125;59.628;17.852;2023-02-11T05:24:22;3.20;;;1.23;;
12122;SDS011;6125;59.628;17.852;2023-02-11T05:26:49;2.40;;;1.23;;
12122;SDS011;6125;59.628;17.852;2023-02-11T05:29:17;6.97;;;2.00;;
12122;SDS011;6125;59.628;17.852;2023-02-11T05:31:44;4.37;;;1.33;;
12122;SDS011;6125;59.628;17.852;2023-02-11T05:34:13;1.13;;;1.00;;
12122;SDS011;6125;59.628;17.852;2023-02-11T05:36:43;2.33;;;1.13;;
12122;SDS011;6125;59.628;17.852;2023-02-11T05:39:10;3.70;;;1.50;;
12122;SDS011;6125;59.628;17.852;2023-02-11T05:41:38;2.53;;;0.90;;
12122;SDS011;6125;59.628;17.852;2023-02-11T05:44:05;1.50;;;1.03;;
12122;SDS011;6125;59.628;17.852;2023-02-11T05:46:32;1.97;;;1.23;;
12122;SDS011;6125;59.628;17.852;2023-02-11T05:49:01;4.70;;;1.10;;
12122;SDS011;6125;59.628;17.852;2023-02-11T05:51:30;3.50;;;1.20;;
12122;SDS011;6125;59.628;17.852;2023-02-11T05:53:58;2.97;;;1.40;;
12122;SDS011;6125;59.628;17.852;2023-02-11T05:56:28;2.67;;;1.53;;
12122;SDS011;6125;59.628;17.852;2023-02-11T05:58:57;4.43;;;1.67;;
12122;SDS011;6125;59.628;17.852;2023-02-11T06:01:25;3.50;;;1.33;;
12122;SDS011;6125;59.628;17.852;2023-02-11T06:03:54;2.67;;;1.57;;
12122;SDS011;6125;59.628;17.852;2023-02-11T06:06:22;5.47;;;1.17;;
12122;SDS011;6125;59.628;17.852;2023-02-11T06:08:50;5.13;;;1.43;;
12122;SDS011;6125;59.628;17.852;2023-02-11T06:11:18;2.97;;;1.60;;
12122;SDS011;6125;59.628;17.852;2023-02-11T06:13:46;2.67;;;1.40;;
12122;SDS011;6125;59.628;17.852;2023-02-11T06:16:13;1.37;;;1.10;;
12122;SDS011;6125;59.628;17.852;2023-02-11T06:18:40;2.37;;;1.50;;
12122;SDS011;6125;59.628;17.852;2023-02-11T06:21:08;2.27;;;1.30;;
12122;SDS011;6125;59.628;17.852;2023-02-11T06:23:37;2.80;;;1.40;;
12122;SDS011;6125;59.628;17.852;2023-02-11T06:26:07;3.67;;;1.50;;
12122;SDS011;6125;59.628;17.852;2023-02-11T06:28:40;7.23;;;1.77;;
12122;SDS011;6125;59.628;17.852;2023-02-11T06:31:08;7.63;;;1.70;;
12122;SDS011;6125;59.628;17.852;2023-02-11T06:33:38;6.60;;;1.40;;
12122;SDS011;6125;59.628;17.852;2023-02-11T06:36:10;3.83;;;1.47;;
12122;SDS011;6125;59.628;17.852;2023-02-11T06:38:39;8.03;;;1.60;;
12122;SDS011;6125;59.628;17.852;2023-02-11T06:41:09;5.50;;;1.60;;
12122;SDS011;6125;59.628;17.852;2023-02-11T06:43:39;2.90;;;1.67;;
12122;SDS011;6125;59.628;17.852;2023-02-11T06:46:08;7.27;;;1.60;;
12122;SDS011;6125;59.628;17.852;2023-02-11T06:48:38;6.00;;;1.60;;
12122;SDS011;6125;59.628;17.852;2023-02-11T06:51:06;5.23;;;1.30;;
12122;SDS011;6125;59.628;17.852;2023-02-11T06:53:34;4.70;;;1.90;;
12122;SDS011;6125;59.628;17.852;2023-02-11T06:56:07;5.33;;;1.53;;
12122;SDS011;6125;59.628;17.852;2023-02-11T06:58:37;4.77;;;1.93;;
12122;SDS011;6125;59.628;17.852;2023-02-11T07:01:09;3.67;;;1.80;;
12122;SDS011;6125;59.628;17.852;2023-02-11T07:03:39;3.87;;;1.70;;
12122;SDS011;6125;59.628;17.852;2023-02-11T07:06:11;4.03;;;1.60;;
12122;SDS011;6125;59.628;17.852;2023-02-11T07:08:39;3.03;;;1.80;;
12122;SDS011;6125;59.628;17.852;2023-02-11T07:11:12;5.43;;;1.77;;
12122;SDS011;6125;59.628;17.852;2023-02-11T07:13:41;5.03;;;1.97;;
12122;SDS011;6125;59.628;17.852;2023-02-11T07:16:09;5.40;;;1.70;;
12122;SDS011;6125;59.628;17.852;2023-02-11T07:18:38;4.73;;;1.60;;
12122;SDS011;6125;59.628;17.852;2023-02-11T07:21:05;2.37;;;1.70;;
12122;SDS011;6125;59.628;17.852;2023-02-11T07:23:34;5.87;;;1.90;;
12122;SDS011;6125;59.628;17.852;2023-02-11T07:26:05;4.97;;;1.67;;
12122;SDS011;6125;59.628;17.852;2023-02-11T07:28:35;4.50;;;2.23;;
12122;SDS011;6125;59.628;17.852;2023-02-11T07:31:05;5.97;;;1.80;;
12122;SDS011;6125;59.628;17.852;2023-02-11T07:33:35;7.70;;;3.10;;
12122;SDS011;6125;59.628;17.852;2023-02-11T07:36:05;5.67;;;2.00;;
12122;SDS011;6125;59.628;17.852;2023-02-11T07:38:35;3.90;;;1.57;;
12122;SDS011;6125;59.628;17.852;2023-02-11T07:41:04;5.07;;;1.80;;
12122;SDS011;6125;59.628;17.852;2023-02-11T07:43:32;7.67;;;2.80;;
12122;SDS011;6125;59.628;17.852;2023-02-11T07:46:03;4.47;;;2.10;;
12122;SDS011;6125;59.628;17.852;2023-02-11T07:48:33;3.73;;;1.70;;
12122;SDS011;6125;59.628;17.852;2023-02-11T07:51:07;3.33;;;2.00;;
12122;SDS011;6125;59.628;17.852;2023-02-11T07:53:36;2.90;;;1.73;;
12122;SDS011;6125;59.628;17.852;2023-02-11T07:56:03;3.43;;;2.10;;
12122;SDS011;6125;59.628;17.852;2023-02-11T07:58:32;4.17;;;1.97;;
12122;SDS011;6125;59.628;17.852;2023-02-11T08:01:01;6.97;;;1.57;;
12122;SDS011;6125;59.628;17.852;2023-02-11T08:03:30;6.40;;;1.60;;
12122;SDS011;6125;59.628;17.852;2023-02-11T08:05:57;9.70;;;2.77;;
12122;SDS011;6125;59.628;17.852;2023-02-11T08:08:28;9.90;;;2.10;;
12122;SDS011;6125;59.628;17.852;2023-02-11T08:10:55;2.83;;;1.50;;
12122;SDS011;6125;59.628;17.852;2023-02-11T08:13:22;5.40;;;1.53;;
12122;SDS011;6125;59.628;17.852;2023-02-11T08:15:51;7.03;;;1.93;;
12122;SDS011;6125;59.628;17.852;2023-02-11T08:18:19;10.20;;;2.27;;
12122;SDS011;6125;59.628;17.852;2023-02-11T08:20:46;4.90;;;1.83;;
12122;SDS011;6125;59.628;17.852;2023-02-11T08:23:13;8.80;;;2.53;;
12122;SDS011;6125;59.628;17.852;2023-02-11T08:25:40;5.43;;;1.67;;
12122;SDS011;6125;59.628;17.852;2023-02-11T08:28:09;3.07;;;1.87;;
12122;SDS011;6125;59.628;17.852;2023-02-11T08:30:37;5.70;;;1.97;;
12122;SDS011;6125;59.628;17.852;2023-02-11T08:33:04;6.37;;;2.27;;
12122;SDS011;6125;59.628;17.852;2023-02-11T08:35:37;7.67;;;2.27;;
12122;SDS011;6125;59.628;17.852;2023-02-11T08:38:05;4.60;;;1.50;;
12122;SDS011;6125;59.628;17.852;2023-02-11T08:40:33;7.70;;;1.90;;
12122;SDS011;6125;59.628;17.852;2023-02-11T08:43:01;6.13;;;2.03;;
12122;SDS011;6125;59.628;17.852;2023-02-11T08:45:30;7.57;;;2.67;;
12122;SDS011;6125;59.628;17.852;2023-02-11T08:47:57;6.20;;;1.70;;
12122;SDS011;6125;59.628;17.852;2023-02-11T08:50:24;4.23;;;1.97;;
12122;SDS011;6125;59.628;17.852;2023-02-11T08:52:54;4.40;;;1.83;;
12122;SDS011;6125;59.628;17.852;2023-02-11T08:55:21;5.27;;;2.23;;
12122;SDS011;6125;59.628;17.852;2023-02-11T08:57:48;4.73;;;1.73;;
12122;SDS011;6125;59.628;17.852;2023-02-11T09:00:17;6.73;;;2.07;;
12122;SDS011;6125;59.628;17.852;2023-02-11T09:02:46;7.00;;;2.07;;
12122;SDS011;6125;59.628;17.852;2023-02-11T09:05:13;3.23;;;1.30;;
12122;SDS011;6125;59.628;17.852;2023-02-11T09:07:41;6.60;;;1.90;;
12122;SDS011;6125;59.628;17.852;2023-02-11T09:10:10;7.97;;;2.23;;
12122;SDS011;6125;59.628;17.852;2023-02-11T09:12:38;4.83;;;1.90;;
12122;SDS011;6125;59.628;17.852;2023-02-11T09:15:07;4.20;;;1.20;;
12122;SDS011;6125;59.628;17.852;2023-02-11T09:17:35;6.53;;;1.63;;
12122;SDS011;6125;59.628;17.852;2023-02-11T09:20:02;7.77;;;1.90;;
12122;SDS011;6125;59.628;17.852;2023-02-11T09:22:30;6.63;;;2.07;;
12122;SDS011;6125;59.628;17.852;2023-02-11T09:24:59;2.67;;;1.90;;
12122;SDS011;6125;59.628;17.852;2023-02-11T09:27:29;6.63;;;2.40;;
12122;SDS011;6125;59.628;17.852;2023-02-11T09:29:57;5.13;;;1.53;;
12122;SDS011;6125;59.628;17.852;2023-02-11T09:32:24;5.27;;;1.87;;
12122;SDS011;6125;59.628;17.852;2023-02-11T09:34:51;3.90;;;1.60;;
12122;SDS011;6125;59.628;17.852;2023-02-11T09:37:21;11.23;;;2.03;;
12122;SDS011;6125;59.628;17.852;2023-02-11T09:39:50;6.10;;;1.50;;
12122;SDS011;6125;59.628;17.852;2023-02-11T09:45:13;4.03;;;1.47;;
12122;SDS011;6125;59.628;17.852;2023-02-11T09:47:47;5.30;;;1.60;;
12122;SDS011;6125;59.628;17.852;2023-02-11T09:50:17;7.50;;;1.90;;
12122;SDS011;6125;59.628;17.852;2023-02-11T09:52:50;3.87;;;1.43;;
12122;SDS011;6125;59.628;17.852;2023-02-11T09:55:27;5.87;;;1.73;;
12122;SDS011;6125;59.628;17.852;2023-02-11T09:57:57;4.07;;;1.77;;
12122;SDS011;6125;59.628;17.852;2023-02-11T10:00:27;6.10;;;2.07;;
12122;SDS011;6125;59.628;17.852;2023-02-11T10:03:06;5.83;;;1.90;;
12122;SDS011;6125;59.628;17.852;2023-02-11T10:06:07;3.33;;;1.37;;
12122;SDS011;6125;59.628;17.852;2023-02-11T10:08:56;3.63;;;1.53;;
12122;SDS011;6125;59.628;17.852;2023-02-11T10:11:34;4.87;;;1.53;;
12122;SDS011;6125;59.628;17.852;2023-02-11T10:14:11;6.07;;;1.53;;
12122;SDS011;6125;59.628;17.852;2023-02-11T10:16:54;5.23;;;1.53;;
12122;SDS011;6125;59.628;17.852;2023-02-11T10:19:34;2.87;;;1.37;;
12122;SDS011;6125;59.628;17.852;2023-02-11T10:22:13;3.13;;;1.50;;
12122;SDS011;6125;59.628;17.852;2023-02-11T10:24:49;4.37;;;1.50;;
12122;SDS011;6125;59.628;17.852;2023-02-11T10:27:19;6.03;;;1.60;;
12122;SDS011;6125;59.628;17.852;2023-02-11T10:29:52;6.30;;;1.63;;
12122;SDS011;6125;59.628;17.852;2023-02-11T10:32:30;5.13;;;1.80;;
12122;SDS011;6125;59.628;17.852;2023-02-11T10:35:09;5.07;;;1.77;;
12122;SDS011;6125;59.628;17.852;2023-02-11T10:37:42;7.80;;;1.60;;
12122;SDS011;6125;59.628;17.852;2023-02-11T10:40:11;4.73;;;1.90;;
12122;SDS011;6125;59.628;17.852;2023-02-11T10:42:43;5.90;;;1.47;;
12122;SDS011;6125;59.628;17.852;2023-02-11T10:45:24;5.70;;;1.77;;
12122;SDS011;6125;59.628;17.852;2023-02-11T10:47:56;7.50;;;2.00;;
12122;SDS011;6125;59.628;17.852;2023-02-11T10:50:24;5.13;;;1.30;;
12122;SDS011;6125;59.628;17.852;2023-02-11T10:53:08;9.47;;;1.93;;
12122;SDS011;6125;59.628;17.852;2023-02-11T10:55:38;4.87;;;1.30;;
12122;SDS011;6125;59.628;17.852;2023-02-11T10:58:27;6.87;;;1.90;;
12122;SDS011;6125;59.628;17.852;2023-02-11T11:00:59;4.43;;;1.73;;
12122;SDS011;6125;59.628;17.852;2023-02-11T11:03:27;8.10;;;1.60;;
12122;SDS011;6125;59.628;17.852;2023-02-11T11:05:58;4.50;;;1.60;;
12122;SDS011;6125;59.628;17.852;2023-02-11T11:08:36;5.77;;;1.53;;
12122;SDS011;6125;59.628;17.852;2023-02-11T11:11:06;2.77;;;1.40;;
12122;SDS011;6125;59.628;17.852;2023-02-11T11:13:37;5.63;;;1.57;;
12122;SDS011;6125;59.628;17.852;2023-02-11T11:16:22;7.40;;;1.37;;
12122;SDS011;6125;59.628;17.852;2023-02-11T11:18:51;5.90;;;1.47;;
12122;SDS011;6125;59.628;17.852;2023-02-11T11:21:23;5.43;;;1.60;;
12122;SDS011;6125;59.628;17.852;2023-02-11T11:23:54;4.67;;;1.50;;
12122;SDS011;6125;59.628;17.852;2023-02-11T11:26:23;4.57;;;1.63;;
12122;SDS011;6125;59.628;17.852;2023-02-11T11:28:55;6.97;;;1.33;;
12122;SDS011;6125;59.628;17.852;2023-02-11T11:31:30;7.53;;;2.83;;
12122;SDS011;6125;59.628;17.852;2023-02-11T11:34:02;6.60;;;1.70;;
12122;SDS011;6125;59.628;17.852;2023-02-11T11:36:46;5.23;;;2.00;;
12122;SDS011;6125;59.628;17.852;2023-02-11T11:39:16;6.73;;;1.80;;
12122;SDS011;6125;59.628;17.852;2023-02-11T11:41:48;3.40;;;1.30;;
12122;SDS011;6125;59.628;17.852;2023-02-11T11:44:22;3.63;;;1.60;;
12122;SDS011;6125;59.628;17.852;2023-02-11T11:47:06;5.50;;;1.37;;
12122;SDS011;6125;59.628;17.852;2023-02-11T11:49:46;7.20;;;1.80;;
12122;SDS011;6125;59.628;17.852;2023-02-11T11:52:18;4.83;;;1.50;;
12122;SDS011;6125;59.628;17.852;2023-02-11T11:55:01;5.37;;;1.50;;
12122;SDS011;6125;59.628;17.852;2023-02-11T11:57:50;3.23;;;1.60;;
12122;SDS011;6125;59.628;17.852;2023-02-11T12:00:18;5.13;;;1.70;;
12122;SDS011;6125;59.628;17.852;2023-02-11T12:05:52;3.53;;;1.53;;
12122;SDS011;6125;59.628;17.852;2023-02-11T12:08:36;3.70;;;1.60;;
12122;SDS011;6125;59.628;17.852;2023-02-11T12:11:11;3.10;;;1.57;;
12122;SDS011;6125;59.628;17.852;2023-02-11T12:13:47;4.43;;;1.27;;
12122;SDS011;6125;59.628;17.852;2023-02-11T12:16:27;4.10;;;1.30;;
12122;SDS011;6125;59.628;17.852;2023-02-11T12:19:12;5.33;;;1.30;;
12122;SDS011;6125;59.628;17.852;2023-02-11T12:22:06;6.00;;;1.83;;
12122;SDS011;6125;59.628;17.852;2023-02-11T12:24:40;3.53;;;1.17;;
12122;SDS011;6125;59.628;17.852;2023-02-11T12:27:21;2.47;;;1.30;;
12122;SDS011;6125;59.628;17.852;2023-02-11T12:30:03;6.97;;;1.60;;
12122;SDS011;6125;59.628;17.852;2023-02-11T12:32:46;5.00;;;1.30;;
12122;SDS011;6125;59.628;17.852;2023-02-11T12:35:23;3.17;;;1.63;;
12122;SDS011;6125;59.628;17.852;2023-02-11T12:40:48;6.47;;;1.50;;
12122;SDS011;6125;59.628;17.852;2023-02-11T12:43:27;4.97;;;1.63;;
12122;SDS011;6125;59.628;17.852;2023-02-11T12:46:09;5.93;;;1.43;;
12122;SDS011;6125;59.628;17.852;2023-02-11T12:51:58;3.17;;;1.23;;
12122;SDS011;6125;59.628;17.852;2023-02-11T12:54:50;2.83;;;1.90;;
12122;SDS011;6125;59.628;17.852;2023-02-11T12:57:24;3.90;;;1.50;;
12122;SDS011;6125;59.628;17.852;2023-02-11T12:59:54;2.87;;;1.50;;
12122;SDS011;6125;59.628;17.852;2023-02-11T13:02:30;2.33;;;1.30;;
12122;SDS011;6125;59.628;17.852;2023-02-11T13:05:05;3.30;;;1.50;;
12122;SDS011;6125;59.628;17.852;2023-02-11T13:07:52;3.80;;;1.30;;
12122;SDS011;6125;59.628;17.852;2023-02-11T13:10:26;2.63;;;1.37;;
12122;SDS011;6125;59.628;17.852;2023-02-11T13:12:58;5.87;;;1.70;;
12122;SDS011;6125;59.628;17.852;2023-02-11T13:15:44;3.60;;;1.60;;
12122;SDS011;6125;59.628;17.852;2023-02-11T13:21:24;3.27;;;1.30;;
12122;SDS011;6125;59.628;17.852;2023-02-11T13:24:06;3.10;;;1.40;;
12122;SDS011;6125;59.628;17.852;2023-02-11T13:26:43;3.20;;;1.60;;
12122;SDS011;6125;59.628;17.852;2023-02-11T13:29:20;2.73;;;1.23;;
12122;SDS011;6125;59.628;17.852;2023-02-11T13:31:57;3.87;;;1.30;;
12122;SDS011;6125;59.628;17.852;2023-02-11T13:37:21;3.30;;;1.43;;
12122;SDS011;6125;59.628;17.852;2023-02-11T13:39:59;2.70;;;1.30;;
12122;SDS011;6125;59.628;17.852;2023-02-11T13:42:29;1.43;;;1.00;;
12122;SDS011;6125;59.628;17.852;2023-02-11T13:45:00;3.13;;;1.47;;
12122;SDS011;6125;59.628;17.852;2023-02-11T13:47:29;5.83;;;1.90;;
12122;SDS011;6125;59.628;17.852;2023-02-11T13:49:58;5.07;;;1.70;;
12122;SDS011;6125;59.628;17.852;2023-02-11T13:52:33;5.67;;;1.30;;
12122;SDS011;6125;59.628;17.852;2023-02-11T13:55:08;3.80;;;1.30;;
12122;SDS011;6125;59.628;17.852;2023-02-11T13:57:46;5.13;;;1.60;;
12122;SDS011;6125;59.628;17.852;2023-02-11T14:00:44;4.60;;;1.40;;
12122;SDS011;6125;59.628;17.852;2023-02-11T14:06:22;5.07;;;1.50;;
12122;SDS011;6125;59.628;17.852;2023-02-11T14:12:20;2.47;;;1.17;;
12122;SDS011;6125;59.628;17.852;2023-02-11T14:14:57;3.67;;;1.23;;
12122;SDS011;6125;59.628;17.852;2023-02-11T14:17:39;2.43;;;1.20;;
12122;SDS011;6125;59.628;17.852;2023-02-11T14:23:06;4.13;;;1.53;;
12122;SDS011;6125;59.628;17.852;2023-02-11T14:25:49;3.33;;;1.30;;
12122;SDS011;6125;59.628;17.852;2023-02-11T14:28:24;2.87;;;1.20;;
12122;SDS011;6125;59.628;17.852;2023-02-11T14:30:58;2.67;;;1.37;;
12122;SDS011;6125;59.628;17.852;2023-02-11T14:33:45;3.73;;;1.63;;
12122;SDS011;6125;59.628;17.852;2023-02-11T14:36:34;3.20;;;1.13;;
12122;SDS011;6125;59.628;17.852;2023-02-11T14:39:25;1.97;;;1.10;;
12122;SDS011;6125;59.628;17.852;2023-02-11T14:42:09;3.00;;;1.30;;
12122;SDS011;6125;59.628;17.852;2023-02-11T14:44:47;4.10;;;1.43;;
12122;SDS011;6125;59.628;17.852;2023-02-11T14:47:19;3.43;;;1.43;;
12122;SDS011;6125;59.628;17.852;2023-02-11T14:49:52;5.10;;;1.63;;
12122;SDS011;6125;59.628;17.852;2023-02-11T14:52:23;2.90;;;1.43;;
12122;SDS011;6125;59.628;17.852;2023-02-11T14:54:56;4.83;;;1.57;;
12122;SDS011;6125;59.628;17.852;2023-02-11T14:57:32;7.13;;;1.73;;
12122;SDS011;6125;59.628;17.852;2023-02-11T15:00:04;3.47;;;1.70;;
12122;SDS011;6125;59.628;17.852;2023-02-11T15:02:39;3.80;;;1.70;;
12122;SDS011;6125;59.628;17.852;2023-02-11T15:05:12;3.47;;;1.80;;
12122;SDS011;6125;59.628;17.852;2023-02-11T15:07:45;6.07;;;1.67;;
12122;SDS011;6125;59.628;17.852;2023-02-11T15:10:18;3.37;;;1.97;;
12122;SDS011;6125;59.628;17.852;2023-02-11T15:12:52;4.00;;;1.50;;
12122;SDS011;6125;59.628;17.852;2023-02-11T15:15:20;1.70;;;1.10;;
12122;SDS011;6125;59.628;17.852;2023-02-11T15:17:48;3.97;;;1.20;;
12122;SDS011;6125;59.628;17.852;2023-02-11T15:20:19;4.00;;;1.43;;
12122;SDS011;6125;59.628;17.852;2023-02-11T15:22:56;3.27;;;1.57;;
12122;SDS011;6125;59.628;17.852;2023-02-11T15:25:29;3.10;;;1.50;;
12122;SDS011;6125;59.628;17.852;2023-02-11T15:27:56;5.00;;;1.97;;
12122;SDS011;6125;59.628;17.852;2023-02-11T15:30:26;4.23;;;1.87;;
12122;SDS011;6125;59.628;17.852;2023-02-11T15:32:56;4.23;;;1.90;;
12122;SDS011;6125;59.628;17.852;2023-02-11T15:35:27;4.97;;;2.00;;
12122;SDS011;6125;59.628;17.852;2023-02-11T15:37:57;4.07;;;1.50;;
12122;SDS011;6125;59.628;17.852;2023-02-11T15:40:25;1.90;;;1.20;;
12122;SDS011;6125;59.628;17.852;2023-02-11T15:42:56;4.57;;;2.20;;
12122;SDS011;6125;59.628;17.852;2023-02-11T15:45:26;8.20;;;2.60;;
12122;SDS011;6125;59.628;17.852;2023-02-11T15:48:08;4.87;;;2.20;;
12122;SDS011;6125;59.628;17.852;2023-02-11T15:50:39;9.60;;;2.50;;
12122;SDS011;6125;59.628;17.852;2023-02-11T15:53:17;6.10;;;2.50;;